createdAt,value
2023-02-09T00:01:13.805Z,103127.25
2023-02-09T00:03:42.011Z,103127.31
2023-02-09T00:06:12.926Z,103123.06
2023-02-09T00:08:41.958Z,103119.56
2023-02-09T00:11:11.243Z,103118.75
2023-02-09T00:13:38.334Z,103107.44
2023-02-09T00:16:06.612Z,103110.94
2023-02-09T00:18:34.981Z,103105.78
2023-02-09T00:21:06.341Z,103115.41
2023-02-09T00:23:36.436Z,103108.41
2023-02-09T00:26:08.520Z,103100.59
2023-02-09T00:28:36.367Z,103099.81
2023-02-09T00:31:07.773Z,103093.72
2023-02-09T00:33:35.383Z,103099.94
2023-02-09T00:36:05.615Z,103095.56
2023-02-09T00:38:33.274Z,103095.56
2023-02-09T00:41:00.957Z,103093.84
2023-02-09T00:43:29.981Z,103087.84
2023-02-09T00:45:57.678Z,103090.47
2023-02-09T00:48:25.268Z,103085.28
2023-02-09T00:50:54.224Z,103080.13
2023-02-09T00:53:23.660Z,103087.09
2023-02-09T00:55:52.149Z,103083.63
2023-02-09T00:58:20.318Z,103088.88
2023-02-09T01:00:50.176Z,103084.50
2023-02-09T01:03:17.907Z,103080.34
2023-02-09T01:05:45.569Z,103085.50
2023-02-09T01:08:13.170Z,103076.81
2023-02-09T01:10:40.815Z,103076.81
2023-02-09T01:13:08.547Z,103071.66
2023-02-09T01:15:36.271Z,103074.28
2023-02-09T01:18:05.262Z,103072.56
2023-02-09T01:20:32.922Z,103066.41
2023-02-09T01:23:00.616Z,103063.81
2023-02-09T01:25:28.266Z,103065.66
2023-02-09T01:27:55.892Z,103062.09
2023-02-09T01:30:23.589Z,103060.41
2023-02-09T01:32:51.209Z,103046.47
2023-02-09T01:35:20.578Z,103044.75
2023-02-09T01:37:48.295Z,103041.28
2023-02-09T01:40:16.033Z,103032.66
2023-02-09T01:42:43.655Z,103036.13
2023-02-09T01:45:24.189Z,103030.94
2023-02-09T01:47:57.600Z,103031.03
2023-02-09T01:50:28.575Z,103030.09
2023-02-09T01:52:56.499Z,103017.13
2023-02-09T01:55:29.120Z,103010.16
2023-02-09T01:58:01.582Z,103013.63
2023-02-09T02:00:29.556Z,102997.03
2023-02-09T02:03:02.475Z,102994.47
2023-02-09T02:05:35.319Z,102989.19
2023-02-09T02:08:07.094Z,102983.09
2023-02-09T02:10:35.175Z,102967.44
2023-02-09T02:13:03.169Z,102977.09
2023-02-09T02:15:34.763Z,102967.44
2023-02-09T02:18:27.739Z,102971.00
2023-02-09T02:21:34.704Z,102958.78
2023-02-09T02:24:28.849Z,102948.22
2023-02-09T02:26:59.116Z,102942.16
2023-02-09T02:30:10.545Z,102930.00
2023-02-09T02:32:52.548Z,102915.13
2023-02-09T02:35:30.299Z,102900.31
2023-02-09T02:38:04.026Z,102909.09
2023-02-09T02:40:44.085Z,102903.00
2023-02-09T02:43:22.918Z,102906.47
2023-02-09T02:45:56.842Z,102900.31
2023-02-09T02:48:34.347Z,102893.38
2023-02-09T02:51:05.908Z,102894.16
2023-02-09T02:53:38.135Z,102883.84
2023-02-09T02:56:11.954Z,102881.13
2023-02-09T02:58:43.165Z,102886.25
2023-02-09T03:01:15.539Z,102886.31
2023-02-09T03:03:45.860Z,102885.53
2023-02-09T03:06:14.995Z,102870.69
2023-02-09T03:08:51.063Z,102872.47
2023-02-09T03:11:20.875Z,102865.53
2023-02-09T03:14:01.575Z,102853.31
2023-02-09T03:16:37.857Z,102845.50
2023-02-09T03:19:14.708Z,102834.16
2023-02-09T03:21:49.948Z,102833.38
2023-02-09T03:24:28.529Z,102835.13
2023-02-09T03:27:02.830Z,102822.97
2023-02-09T03:29:32.118Z,102820.28
2023-02-09T03:31:59.778Z,102815.97
2023-02-09T03:34:29.517Z,102820.34
2023-02-09T03:36:58.774Z,102819.50
2023-02-09T03:39:26.376Z,102812.63
2023-02-09T03:41:54.004Z,102804.88
2023-02-09T03:44:27.555Z,102802.31
2023-02-09T03:46:57.618Z,102796.09
2023-02-09T03:49:25.639Z,102798.00
2023-02-09T03:51:54.846Z,102796.09
2023-02-09T03:54:22.589Z,102791.72
2023-02-09T03:56:50.520Z,102793.41
2023-02-09T03:59:18.117Z,102792.56
2023-02-09T04:01:45.665Z,102784.66
2023-02-09T04:04:13.324Z,102784.66
2023-02-09T04:06:40.939Z,102764.56
2023-02-09T04:09:10.160Z,102765.44
2023-02-09T04:11:37.849Z,102761.81
2023-02-09T04:14:06.243Z,102771.38
2023-02-09T04:16:34.089Z,102782.56
2023-02-09T04:19:01.862Z,102775.56
2023-02-09T04:21:29.589Z,102783.16
2023-02-09T04:23:57.590Z,102777.91
2023-02-09T04:26:26.550Z,102779.53
2023-02-09T04:28:54.206Z,102770.75
2023-02-09T04:31:21.930Z,102766.38
2023-02-09T04:33:49.876Z,102773.31
2023-02-09T04:36:17.798Z,102787.38
2023-02-09T04:38:45.389Z,102804.75
2023-02-09T04:41:13.080Z,102823.00
2023-02-09T04:43:42.319Z,102830.72
2023-02-09T04:46:13.644Z,102830.66
2023-02-09T04:48:41.321Z,102818.38
2023-02-09T04:51:09.404Z,102820.03
2023-02-09T04:53:37.346Z,102822.59
2023-02-09T04:56:05.601Z,102821.47
2023-02-09T04:58:50.749Z,102816.19
2023-02-09T05:01:21.831Z,102817.88
2023-02-09T05:03:49.505Z,102814.41
2023-02-09T05:06:17.496Z,102816.13
2023-02-09T05:08:45.793Z,102815.25
2023-02-09T05:11:13.435Z,102796.09
2023-02-09T05:13:41.218Z,102802.13
2023-02-09T05:16:10.429Z,102796.03
2023-02-09T05:18:39.359Z,102797.94
2023-02-09T05:21:07.425Z,102797.88
2023-02-09T05:23:35.008Z,102775.25
2023-02-09T05:26:02.764Z,102779.75
2023-02-09T05:28:30.546Z,102781.53
2023-02-09T05:30:58.580Z,102771.00
2023-02-09T05:33:26.929Z,102770.16
2023-02-09T05:35:56.725Z,102760.44
2023-02-09T05:38:24.805Z,102764.81
2023-02-09T05:40:52.488Z,102764.91
2023-02-09T05:43:20.343Z,102777.09
2023-02-09T05:45:48.223Z,102767.44
2023-02-09T05:48:15.903Z,102761.38
2023-02-09T05:50:43.634Z,102754.44
2023-02-09T05:53:14.415Z,102756.22
2023-02-09T05:55:43.459Z,102754.50
2023-02-09T05:58:11.244Z,102744.84
2023-02-09T06:00:38.970Z,102747.31
2023-02-09T06:03:06.641Z,102756.06
2023-02-09T06:05:34.261Z,102759.53
2023-02-09T06:08:02.032Z,102756.91
2023-02-09T06:10:31.074Z,102754.22
2023-02-09T06:12:58.672Z,102752.47
2023-02-09T06:15:26.265Z,102752.47
2023-02-09T06:17:53.936Z,102753.31
2023-02-09T06:20:21.726Z,102740.31
2023-02-09T06:22:49.395Z,102737.00
2023-02-09T06:25:17.012Z,102758.69
2023-02-09T06:27:45.940Z,102755.22
2023-02-09T06:30:14.602Z,102751.84
2023-02-09T06:32:42.191Z,102747.38
2023-02-09T06:35:09.794Z,102764.78
2023-02-09T06:37:37.422Z,102771.72
2023-02-09T06:40:05.782Z,102776.94
2023-02-09T06:42:44.585Z,102768.09
2023-02-09T06:45:14.464Z,102756.78
2023-02-09T06:47:42.578Z,102755.84
2023-02-09T06:50:11.365Z,102767.16
2023-02-09T06:52:39.339Z,102768.16
2023-02-09T06:55:07.764Z,102767.25
2023-02-09T06:57:35.532Z,102761.16
2023-02-09T07:00:04.939Z,102769.00
2023-02-09T07:02:33.967Z,102779.47
2023-02-09T07:05:01.638Z,102776.63
2023-02-09T07:07:29.903Z,102768.03
2023-02-09T07:09:57.477Z,102778.34
2023-02-09T07:12:25.248Z,102770.50
2023-02-09T07:14:53.675Z,102778.22
2023-02-09T07:17:21.600Z,102763.28
2023-02-09T07:19:50.646Z,102776.22
2023-02-09T07:22:18.262Z,102775.16
2023-02-09T07:24:45.980Z,102757.56
2023-02-09T07:27:13.705Z,102766.13
2023-02-09T07:29:41.654Z,102766.88
2023-02-09T07:32:09.461Z,102763.97
2023-02-09T07:34:37.238Z,102769.78
2023-02-09T07:37:06.588Z,102774.66
2023-02-09T07:39:34.331Z,102770.97
2023-02-09T07:42:02.294Z,102765.44
2023-02-09T07:44:30.198Z,102772.09
2023-02-09T07:46:57.800Z,102764.84
2023-02-09T07:49:25.417Z,102751.44
2023-02-09T07:51:53.066Z,102757.31
2023-02-09T07:54:22.163Z,102757.00
2023-02-09T07:56:49.816Z,102748.78
2023-02-09T07:59:17.514Z,102741.69
2023-02-09T08:01:45.234Z,102740.53
2023-02-09T08:04:13.054Z,102733.09
2023-02-09T08:06:45.111Z,102724.31
2023-02-09T08:09:15.004Z,102732.09
2023-02-09T08:11:49.748Z,102715.09
2023-02-09T08:14:21.084Z,102711.28
2023-02-09T08:16:52.006Z,102716.13
2023-02-09T08:19:23.270Z,102717.41
2023-02-09T08:21:51.943Z,102711.09
2023-02-09T08:24:21.877Z,102710.94
2023-02-09T08:26:50.959Z,102730.56
2023-02-09T08:29:18.784Z,102723.94
2023-02-09T08:31:46.946Z,102734.94
2023-02-09T08:34:14.936Z,102722.31
2023-02-09T08:36:42.592Z,102720.31
2023-02-09T08:39:10.584Z,102720.56
2023-02-09T08:41:38.999Z,102718.47
2023-02-09T08:44:08.055Z,102722.34
2023-02-09T08:46:36.131Z,102712.84
2023-02-09T08:49:03.820Z,102723.00
2023-02-09T08:51:31.663Z,102724.56
2023-02-09T08:53:59.247Z,102730.31
2023-02-09T08:56:26.914Z,102724.88
2023-02-09T08:58:54.558Z,102733.28
2023-02-09T09:01:23.574Z,102726.81
2023-02-09T09:03:51.247Z,102718.00
2023-02-09T09:06:18.988Z,102716.03
2023-02-09T09:08:46.578Z,102726.00
2023-02-09T09:11:14.708Z,102733.47
2023-02-09T09:13:42.957Z,102730.13
2023-02-09T09:16:16.014Z,102724.97
2023-02-09T09:18:45.557Z,102729.06
2023-02-09T09:21:13.643Z,102725.75
2023-02-09T09:23:41.414Z,102719.78
2023-02-09T09:26:10.106Z,102712.44
2023-02-09T09:28:37.829Z,102700.34
2023-02-09T09:31:08.922Z,102714.72
2023-02-09T09:33:36.717Z,102713.22
2023-02-09T09:36:07.889Z,102717.16
2023-02-09T09:38:36.655Z,102720.47
2023-02-09T09:41:05.074Z,102722.34
2023-02-09T09:43:35.751Z,102715.47
2023-02-09T09:46:04.995Z,102720.75
2023-02-09T09:48:41.976Z,102716.69
2023-02-09T09:51:16.078Z,102713.41
2023-02-09T09:53:46.994Z,102719.53
2023-02-09T09:56:15.915Z,102718.75
2023-02-09T09:58:45.105Z,102714.69
2023-02-09T10:01:15.069Z,102712.63
2023-02-09T10:03:42.816Z,102714.09
2023-02-09T10:06:16.936Z,102714.97
2023-02-09T10:08:50.800Z,102720.09
2023-02-09T10:11:24.016Z,102716.53
2023-02-09T10:13:54.233Z,102725.53
2023-02-09T10:16:24.840Z,102721.44
2023-02-09T10:18:53.531Z,102714.94
2023-02-09T10:21:25.084Z,102722.34
2023-02-09T10:24:11.413Z,102722.63
2023-02-09T10:26:40.612Z,102731.56
2023-02-09T10:29:24.959Z,102719.97
2023-02-09T10:31:56.463Z,102722.19
2023-02-09T10:34:32.622Z,102714.38
2023-02-09T10:37:16.634Z,102723.06
2023-02-09T10:39:45.289Z,102718.19
2023-02-09T10:42:20.300Z,102730.97
2023-02-09T10:44:50.655Z,102743.75
2023-02-09T10:47:29.750Z,102743.09
2023-02-09T10:50:02.079Z,102723.72
2023-02-09T10:52:35.169Z,102728.13
2023-02-09T10:55:04.942Z,102721.59
2023-02-09T10:57:36.436Z,102720.00
2023-02-09T11:00:28.548Z,102732.25
2023-02-09T11:03:01.682Z,102727.72
2023-02-09T11:05:32.952Z,102729.59
2023-02-09T11:08:13.581Z,102727.81
2023-02-09T11:10:46.106Z,102730.56
2023-02-09T11:13:23.041Z,102724.47
2023-02-09T11:16:16.330Z,102725.72
2023-02-09T11:18:47.079Z,102719.53
2023-02-09T11:21:20.035Z,102726.50
2023-02-09T11:23:55.293Z,102729.97
2023-02-09T11:26:33.945Z,102735.78
2023-02-09T11:29:10.436Z,102734.81
2023-02-09T11:31:46.435Z,102737.16
2023-02-09T11:34:45.536Z,102741.59
2023-02-09T11:37:25.997Z,102729.78
2023-02-09T11:40:00.355Z,102734.31
2023-02-09T11:42:46.923Z,102728.81
2023-02-09T11:45:21.872Z,102717.25
2023-02-09T11:47:59.411Z,102711.84
2023-02-09T11:50:32.630Z,102712.66
2023-02-09T11:53:02.976Z,102706.56
2023-02-09T11:55:37.912Z,102715.41
2023-02-09T11:58:23.714Z,102707.78
2023-02-09T12:01:09.973Z,102707.25
2023-02-09T12:03:44.310Z,102687.66
2023-02-09T12:06:12.818Z,102675.94
2023-02-09T12:08:57.176Z,102674.34
2023-02-09T12:11:34.584Z,102672.69
2023-02-09T12:14:22.167Z,102668.97
2023-02-09T12:16:59.576Z,102672.34
2023-02-09T12:19:34.516Z,102661.56
2023-02-09T12:22:47.694Z,102662.84
2023-02-09T12:25:34.686Z,102665.47
2023-02-09T12:28:13.779Z,102675.94
2023-02-09T12:31:09.711Z,102674.31
2023-02-09T12:33:38.837Z,102680.97
2023-02-09T12:36:26.278Z,102678.34
2023-02-09T12:39:04.845Z,102672.53
2023-02-09T12:42:11.148Z,102673.97
2023-02-09T12:44:55.734Z,102669.66
2023-02-09T12:47:43.679Z,102675.34
2023-02-09T12:50:24.576Z,102678.06
2023-02-09T12:53:26.557Z,102677.13
2023-02-09T12:56:03.004Z,102681.69
2023-02-09T12:58:41.262Z,102675.38
2023-02-09T13:01:11.609Z,102677.41
2023-02-09T13:03:45.745Z,102684.28
2023-02-09T13:06:27.404Z,102682.75
2023-02-09T13:08:58.026Z,102680.25
2023-02-09T13:11:32.375Z,102683.16
2023-02-09T13:14:05.814Z,102694.34
2023-02-09T13:17:09.589Z,102680.31
2023-02-09T13:19:53.307Z,102676.97
2023-02-09T13:22:46.029Z,102666.41
2023-02-09T13:25:19.813Z,102657.97
2023-02-09T13:27:50.301Z,102652.59
2023-02-09T13:30:27.489Z,102661.44
2023-02-09T13:33:03.164Z,102661.56
2023-02-09T13:35:36.450Z,102661.22
2023-02-09T13:38:15.822Z,102657.78
2023-02-09T13:40:47.415Z,102656.63
2023-02-09T13:43:18.919Z,102663.47
2023-02-09T13:45:50.319Z,102667.47
2023-02-09T13:48:23.577Z,102676.16
2023-02-09T13:50:53.823Z,102661.41
2023-02-09T13:53:24.656Z,102658.03
2023-02-09T13:55:54.088Z,102664.88
2023-02-09T13:58:24.476Z,102672.78
2023-02-09T14:00:55.118Z,102678.38
2023-02-09T14:03:25.015Z,102678.38
2023-02-09T14:05:58.926Z,102693.34
2023-02-09T14:08:27.975Z,102687.44
2023-02-09T14:10:59.613Z,102691.97
2023-02-09T14:13:35.151Z,102692.06
2023-02-09T14:16:10.043Z,102684.81
2023-02-09T14:18:52.016Z,102694.88
2023-02-09T14:21:29.658Z,102701.94
2023-02-09T14:24:27.747Z,102683.81
2023-02-09T14:26:59.252Z,102683.69
2023-02-09T14:29:29.141Z,102695.59
2023-02-09T14:31:58.988Z,102686.19
2023-02-09T14:34:38.357Z,102692.44
2023-02-09T14:37:31.446Z,102697.50
2023-02-09T14:40:01.888Z,102700.22
2023-02-09T14:42:30.320Z,102702.97
2023-02-09T14:45:00.846Z,102703.91
2023-02-09T14:47:31.777Z,102706.63
2023-02-09T14:49:59.687Z,102708.44
2023-02-09T14:52:32.583Z,102711.69
2023-02-09T14:55:04.494Z,102709.72
2023-02-09T14:57:33.566Z,102714.25
2023-02-09T15:00:01.265Z,102713.00
2023-02-09T15:02:29.208Z,102723.94
2023-02-09T15:04:56.892Z,102729.94
2023-02-09T15:07:32.575Z,102732.69
2023-02-09T15:10:00.187Z,102732.69
2023-02-09T15:12:30.225Z,102720.56
2023-02-09T15:15:00.475Z,102722.16
2023-02-09T15:17:30.412Z,102722.22
2023-02-09T15:19:59.151Z,102711.63
2023-02-09T15:22:28.125Z,102714.97
2023-02-09T15:24:55.824Z,102710.09
2023-02-09T15:27:33.568Z,102718.66
2023-02-09T15:30:04.044Z,102718.59
2023-02-09T15:32:32.288Z,102718.59
2023-02-09T15:34:59.865Z,102723.75
2023-02-09T15:37:33.901Z,102719.53
2023-02-09T15:40:04.899Z,102720.56
2023-02-09T15:42:50.146Z,102725.91
2023-02-09T15:45:38.388Z,102729.59
2023-02-09T15:48:06.944Z,102724.31
2023-02-09T15:50:36.425Z,102734.13
2023-02-09T15:53:11.695Z,102734.97
2023-02-09T15:55:40.703Z,102730.53
2023-02-09T15:58:13.883Z,102730.00
2023-02-09T16:00:41.964Z,102732.34
2023-02-09T16:03:14.878Z,102722.00
2023-02-09T16:05:42.606Z,102728.94
2023-02-09T16:08:17.721Z,102732.53
2023-02-09T16:10:47.490Z,102728.28
2023-02-09T16:13:16.220Z,102734.53
2023-02-09T16:15:44.547Z,102737.34
2023-02-09T16:18:12.219Z,102739.88
2023-02-09T16:20:46.642Z,102743.28
2023-02-09T16:23:20.815Z,102751.19
2023-02-09T16:25:50.408Z,102744.09
2023-02-09T16:28:18.809Z,102759.06
2023-02-09T16:30:52.846Z,102752.09
2023-02-09T16:33:23.150Z,102761.72
2023-02-09T16:35:54.697Z,102766.97
2023-02-09T16:38:24.825Z,102758.88
2023-02-09T16:40:53.133Z,102757.91
2023-02-09T16:43:21.544Z,102763.09
2023-02-09T16:46:02.237Z,102774.59
2023-02-09T16:48:33.087Z,102776.28
2023-02-09T16:51:00.865Z,102774.31
2023-02-09T16:53:34.279Z,102788.09
2023-02-09T16:56:04.635Z,102788.88
2023-02-09T16:58:32.646Z,102785.19
2023-02-09T17:01:00.400Z,102788.50
2023-02-09T17:03:33.313Z,102794.38
2023-02-09T17:06:02.243Z,102787.13
2023-02-09T17:08:33.000Z,102793.19
2023-02-09T17:11:02.290Z,102791.38
2023-02-09T17:13:30.771Z,102798.13
2023-02-09T17:16:01.715Z,102799.84
2023-02-09T17:18:32.397Z,102800.56
2023-02-09T17:21:02.915Z,102802.16
2023-02-09T17:23:32.053Z,102816.84
2023-02-09T17:26:00.298Z,102818.56
2023-02-09T17:28:29.009Z,102829.00
2023-02-09T17:30:58.627Z,102829.00
2023-02-09T17:33:28.917Z,102831.63
2023-02-09T17:38:47.884Z,102841.69
2023-02-09T17:41:17.954Z,102848.44
2023-02-09T17:43:46.222Z,102852.78
2023-02-09T17:46:15.928Z,102852.69
2023-02-09T17:48:43.703Z,102856.91
2023-02-09T17:51:19.126Z,102853.25
2023-02-09T17:53:48.941Z,102845.13
2023-02-09T17:56:16.978Z,102856.44
2023-02-09T17:58:45.224Z,102855.38
2023-02-09T18:01:26.489Z,102850.09
2023-02-09T18:03:54.981Z,102848.13
2023-02-09T18:06:29.984Z,102848.13
2023-02-09T18:08:59.108Z,102850.63
2023-02-09T18:11:43.279Z,102845.16
2023-02-09T18:14:19.498Z,102846.66
2023-02-09T18:16:47.864Z,102847.53
2023-02-09T18:19:17.814Z,102844.69
2023-02-09T18:21:50.358Z,102837.50
2023-02-09T18:24:20.823Z,102842.50
2023-02-09T18:26:50.818Z,102836.16
2023-02-09T18:29:18.667Z,102835.00
2023-02-09T18:31:46.641Z,102841.97
2023-02-09T18:34:15.009Z,102838.19
2023-02-09T18:36:42.960Z,102836.22
2023-02-09T18:39:10.574Z,102830.81
2023-02-09T18:41:39.622Z,102830.59
2023-02-09T18:44:07.344Z,102825.25
2023-02-09T18:46:34.983Z,102833.88
2023-02-09T18:49:03.699Z,102830.41
2023-02-09T18:51:32.453Z,102825.97
2023-02-09T18:54:00.226Z,102833.16
2023-02-09T18:56:28.237Z,102830.31
2023-02-09T18:58:57.340Z,102833.78
2023-02-09T19:01:25.545Z,102843.50
2023-02-09T19:03:54.458Z,102839.91
2023-02-09T19:06:25.453Z,102847.72
2023-02-09T19:08:53.157Z,102851.22
2023-02-09T19:11:23.011Z,102852.03
2023-02-09T19:14:04.592Z,102857.13
2023-02-09T19:16:33.883Z,102848.25
2023-02-09T19:19:02.015Z,102849.19
2023-02-09T19:21:31.755Z,102837.81
2023-02-09T19:23:59.769Z,102844.69
2023-02-09T19:26:27.417Z,102855.34
2023-02-09T19:28:58.019Z,102847.31
2023-02-09T19:31:25.840Z,102855.13
2023-02-09T19:33:57.233Z,102855.13
2023-02-09T19:36:27.610Z,102855.97
2023-02-09T19:38:55.881Z,102866.75
2023-02-09T19:41:25.449Z,102861.38
2023-02-09T19:43:56.128Z,102870.03
2023-02-09T19:46:24.061Z,102864.75
2023-02-09T19:48:53.625Z,102871.81
2023-02-09T19:51:23.480Z,102869.28
2023-02-09T19:53:52.040Z,102868.31
2023-02-09T19:56:23.340Z,102867.69
2023-02-09T19:58:51.727Z,102867.69
2023-02-09T20:01:20.452Z,102863.38
2023-02-09T20:03:49.510Z,102853.66
2023-02-09T20:06:17.682Z,102850.16
2023-02-09T20:08:46.712Z,102850.16
2023-02-09T20:11:17.720Z,102847.53
2023-02-09T20:13:45.737Z,102850.91
2023-02-09T20:16:20.269Z,102855.34
2023-02-09T20:18:48.859Z,102851.75
2023-02-09T20:21:19.001Z,102854.47
2023-02-09T20:23:48.840Z,102871.28
2023-02-09T20:26:18.833Z,102846.75
2023-02-09T20:28:46.571Z,102852.03
2023-02-09T20:31:18.758Z,102852.81
2023-02-09T20:33:46.397Z,102857.03
2023-02-09T20:36:14.044Z,102859.88
2023-02-09T20:38:41.659Z,102850.91
2023-02-09T20:41:11.947Z,102849.97
2023-02-09T20:43:57.548Z,102859.47
2023-02-09T20:46:41.508Z,102850.69
2023-02-09T20:49:10.176Z,102845.22
2023-02-09T20:51:37.973Z,102849.00
2023-02-09T20:54:06.631Z,102853.25
2023-02-09T20:56:36.825Z,102848.91
2023-02-09T20:59:04.753Z,102841.84
2023-02-09T21:01:32.656Z,102852.50
2023-02-09T21:04:00.380Z,102838.44
2023-02-09T21:06:28.880Z,102841.63
2023-02-09T21:08:56.607Z,102844.16
2023-02-09T21:11:24.262Z,102839.81
2023-02-09T21:13:53.320Z,102829.16
2023-02-09T21:16:21.096Z,102840.66
2023-02-09T21:18:50.484Z,102832.00
2023-02-09T21:21:18.997Z,102842.44
2023-02-09T21:23:47.815Z,102844.28
2023-02-09T21:26:17.428Z,102849.34
2023-02-09T21:28:45.458Z,102856.09
2023-02-09T21:31:17.692Z,102858.84
2023-02-09T21:33:45.390Z,102864.78
2023-02-09T21:36:13.042Z,102866.44
2023-02-09T21:38:41.512Z,102865.59
2023-02-09T21:41:31.032Z,102868.34
2023-02-09T21:43:58.670Z,102870.88
2023-02-09T21:46:27.925Z,102862.88
2023-02-09T21:48:56.142Z,102861.28
2023-02-09T21:51:24.334Z,102860.31
2023-02-09T21:53:52.338Z,102860.66
2023-02-09T21:56:20.203Z,102863.94
2023-02-09T21:58:48.088Z,102864.78
2023-02-09T22:01:16.005Z,102885.25
2023-02-09T22:03:48.297Z,102879.00
2023-02-09T22:06:15.999Z,102885.25
2023-02-09T22:08:43.619Z,102889.47
2023-02-09T22:11:11.307Z,102877.13
2023-02-09T22:13:38.860Z,102879.66
2023-02-09T22:16:07.928Z,102883.16
2023-02-09T22:18:35.770Z,102883.88
2023-02-09T22:21:08.770Z,102893.72
2023-02-09T22:23:36.592Z,102875.13
2023-02-09T22:26:06.538Z,102887.38
2023-02-09T22:28:36.396Z,102890.13
2023-02-09T22:31:08.476Z,102897.09
2023-02-09T22:33:36.997Z,102911.06
2023-02-09T22:36:12.661Z,102910.06
2023-02-09T22:38:41.318Z,102919.81
2023-02-09T22:41:21.223Z,102921.69
2023-02-09T22:43:50.292Z,102922.66
2023-02-09T22:46:18.509Z,102918.22
2023-02-09T22:48:51.158Z,102914.75
2023-02-09T22:51:21.022Z,102908.69
2023-02-09T22:53:48.817Z,102913.78
2023-02-09T22:56:16.914Z,102918.13
2023-02-09T22:58:44.519Z,102918.84
2023-02-09T23:01:20.301Z,102915.34
2023-02-09T23:03:48.244Z,102922.47
2023-02-09T23:06:18.423Z,102918.97
2023-02-09T23:08:48.311Z,102930.38
2023-02-09T23:11:19.333Z,102927.63
2023-02-09T23:13:48.058Z,102927.09
2023-02-09T23:16:19.700Z,102924.09
2023-02-09T23:18:49.447Z,102925.47
2023-02-09T23:21:18.860Z,102927.56
2023-02-09T23:23:48.312Z,102930.41
2023-02-09T23:26:18.354Z,102939.28
2023-02-09T23:28:46.281Z,102929.78
2023-02-09T23:31:16.133Z,102926.56
2023-02-09T23:33:44.374Z,102920.75
2023-02-09T23:36:14.863Z,102930.75
2023-02-09T23:38:43.144Z,102923.25
2023-02-09T23:41:14.759Z,102921.72
2023-02-09T23:43:42.808Z,102932.47
2023-02-09T23:46:13.044Z,102940.72
2023-02-09T23:48:41.035Z,102946.19
2023-02-09T23:51:12.096Z,102955.88
2023-02-09T23:53:40.009Z,102949.66
2023-02-09T23:56:08.137Z,102962.88
2023-02-09T23:58:39.405Z,102960.22
